sensor_id;sensor_type;location;lat;lon;timestamp;P1;durP1;ratioP1;P2;durP2;ratioP2
1693;SDS011;844;47.058;15.472;2022-10-16T00:00:11;42.70;;;36.43;;
1693;SDS011;844;47.058;15.472;2022-10-16T00:02:41;41.47;;;37.10;;
1693;SDS011;844;47.058;15.472;2022-10-16T00:05:10;44.77;;;40.07;;
1693;SDS011;844;47.058;15.472;2022-10-16T00:07:40;40.80;;;36.70;;
1693;SDS011;844;47.058;15.472;2022-10-16T00:10:09;41.23;;;35.40;;
1693;SDS011;844;47.058;15.472;2022-10-16T00:12:40;39.77;;;35.87;;
1693;SDS011;844;47.058;15.472;2022-10-16T00:15:10;41.70;;;37.37;;
1693;SDS011;844;47.058;15.472;2022-10-16T00:17:39;41.00;;;36.90;;
1693;SDS011;844;47.058;15.472;2022-10-16T00:20:09;39.13;;;35.30;;
1693;SDS011;844;47.058;15.472;2022-10-16T00:22:38;37.97;;;34.07;;
1693;SDS011;844;47.058;15.472;2022-10-16T00:25:07;37.67;;;33.73;;
1693;SDS011;844;47.058;15.472;2022-10-16T00:27:38;38.87;;;34.70;;
1693;SDS011;844;47.058;15.472;2022-10-16T00:30:07;42.13;;;37.93;;
1693;SDS011;844;47.058;15.472;2022-10-16T00:32:38;42.40;;;37.53;;
1693;SDS011;844;47.058;15.472;2022-10-16T00:35:08;38.63;;;34.50;;
1693;SDS011;844;47.058;15.472;2022-10-16T00:37:37;37.10;;;33.53;;
1693;SDS011;844;47.058;15.472;2022-10-16T00:40:07;38.97;;;35.10;;
1693;SDS011;844;47.058;15.472;2022-10-16T00:42:39;37.30;;;33.47;;
1693;SDS011;844;47.058;15.472;2022-10-16T00:45:09;38.20;;;32.57;;
1693;SDS011;844;47.058;15.472;2022-10-16T00:47:39;38.13;;;34.03;;
1693;SDS011;844;47.058;15.472;2022-10-16T00:50:10;40.90;;;36.47;;
1693;SDS011;844;47.058;15.472;2022-10-16T00:52:43;36.57;;;32.93;;
1693;SDS011;844;47.058;15.472;2022-10-16T00:55:14;41.03;;;36.83;;
1693;SDS011;844;47.058;15.472;2022-10-16T00:57:45;36.67;;;32.60;;
1693;SDS011;844;47.058;15.472;2022-10-16T01:00:16;39.27;;;35.17;;
1693;SDS011;844;47.058;15.472;2022-10-16T01:02:51;38.67;;;34.43;;
1693;SDS011;844;47.058;15.472;2022-10-16T01:05:21;38.53;;;34.70;;
1693;SDS011;844;47.058;15.472;2022-10-16T01:07:54;40.80;;;33.07;;
1693;SDS011;844;47.058;15.472;2022-10-16T01:10:27;41.13;;;36.80;;
1693;SDS011;844;47.058;15.472;2022-10-16T01:13:03;40.40;;;35.03;;
1693;SDS011;844;47.058;15.472;2022-10-16T01:15:36;38.97;;;34.83;;
1693;SDS011;844;47.058;15.472;2022-10-16T01:18:09;37.20;;;33.60;;
1693;SDS011;844;47.058;15.472;2022-10-16T01:20:42;38.50;;;34.07;;
1693;SDS011;844;47.058;15.472;2022-10-16T01:23:16;37.67;;;33.80;;
1693;SDS011;844;47.058;15.472;2022-10-16T01:26:04;37.40;;;33.40;;
1693;SDS011;844;47.058;15.472;2022-10-16T01:28:44;37.43;;;33.53;;
1693;SDS011;844;47.058;15.472;2022-10-16T01:31:17;37.47;;;33.63;;
1693;SDS011;844;47.058;15.472;2022-10-16T01:33:49;36.67;;;32.97;;
1693;SDS011;844;47.058;15.472;2022-10-16T01:36:23;36.33;;;32.70;;
1693;SDS011;844;47.058;15.472;2022-10-16T01:38:55;33.17;;;29.77;;
1693;SDS011;844;47.058;15.472;2022-10-16T01:41:27;36.13;;;32.33;;
1693;SDS011;844;47.058;15.472;2022-10-16T01:44:03;36.53;;;32.53;;
1693;SDS011;844;47.058;15.472;2022-10-16T01:46:35;37.90;;;34.40;;
1693;SDS011;844;47.058;15.472;2022-10-16T01:49:06;35.87;;;32.20;;
1693;SDS011;844;47.058;15.472;2022-10-16T01:51:36;35.50;;;31.90;;
1693;SDS011;844;47.058;15.472;2022-10-16T01:54:06;36.57;;;31.67;;
1693;SDS011;844;47.058;15.472;2022-10-16T01:56:37;35.10;;;31.30;;
1693;SDS011;844;47.058;15.472;2022-10-16T01:59:11;36.80;;;32.87;;
1693;SDS011;844;47.058;15.472;2022-10-16T02:01:44;34.33;;;30.67;;
1693;SDS011;844;47.058;15.472;2022-10-16T02:04:17;34.30;;;30.90;;
1693;SDS011;844;47.058;15.472;2022-10-16T02:06:49;35.80;;;31.97;;
1693;SDS011;844;47.058;15.472;2022-10-16T02:09:18;37.63;;;33.70;;
1693;SDS011;844;47.058;15.472;2022-10-16T02:11:48;37.53;;;31.57;;
1693;SDS011;844;47.058;15.472;2022-10-16T02:14:19;34.33;;;30.73;;
1693;SDS011;844;47.058;15.472;2022-10-16T02:16:51;33.33;;;30.23;;
1693;SDS011;844;47.058;15.472;2022-10-16T02:19:20;33.97;;;30.77;;
1693;SDS011;844;47.058;15.472;2022-10-16T02:24:42;39.77;;;35.60;;
1693;SDS011;844;47.058;15.472;2022-10-16T02:27:16;40.20;;;35.97;;
1693;SDS011;844;47.058;15.472;2022-10-16T02:29:50;36.50;;;31.60;;
1693;SDS011;844;47.058;15.472;2022-10-16T02:32:27;39.43;;;35.20;;
1693;SDS011;844;47.058;15.472;2022-10-16T02:34:59;40.83;;;36.57;;
1693;SDS011;844;47.058;15.472;2022-10-16T02:37:29;38.90;;;34.97;;
1693;SDS011;844;47.058;15.472;2022-10-16T02:40:00;38.87;;;35.07;;
1693;SDS011;844;47.058;15.472;2022-10-16T02:42:33;42.40;;;38.10;;
1693;SDS011;844;47.058;15.472;2022-10-16T02:45:07;40.13;;;35.93;;
1693;SDS011;844;47.058;15.472;2022-10-16T02:47:38;38.27;;;34.33;;
1693;SDS011;844;47.058;15.472;2022-10-16T02:50:07;37.00;;;33.47;;
1693;SDS011;844;47.058;15.472;2022-10-16T02:52:37;39.83;;;35.57;;
1693;SDS011;844;47.058;15.472;2022-10-16T02:55:07;37.50;;;33.40;;
1693;SDS011;844;47.058;15.472;2022-10-16T02:57:36;40.07;;;35.80;;
1693;SDS011;844;47.058;15.472;2022-10-16T03:00:10;41.33;;;37.03;;
1693;SDS011;844;47.058;15.472;2022-10-16T03:02:42;39.33;;;35.17;;
1693;SDS011;844;47.058;15.472;2022-10-16T03:05:12;37.50;;;33.60;;
1693;SDS011;844;47.058;15.472;2022-10-16T03:07:41;41.30;;;37.13;;
1693;SDS011;844;47.058;15.472;2022-10-16T03:10:11;41.13;;;36.90;;
1693;SDS011;844;47.058;15.472;2022-10-16T03:12:41;37.93;;;33.87;;
1693;SDS011;844;47.058;15.472;2022-10-16T03:15:12;38.90;;;34.70;;
1693;SDS011;844;47.058;15.472;2022-10-16T03:17:41;43.47;;;38.97;;
1693;SDS011;844;47.058;15.472;2022-10-16T03:20:11;42.50;;;38.20;;
1693;SDS011;844;47.058;15.472;2022-10-16T03:22:40;42.20;;;37.90;;
1693;SDS011;844;47.058;15.472;2022-10-16T03:25:10;45.10;;;38.73;;
1693;SDS011;844;47.058;15.472;2022-10-16T03:27:39;50.23;;;40.20;;
1693;SDS011;844;47.058;15.472;2022-10-16T03:30:09;53.27;;;45.40;;
1693;SDS011;844;47.058;15.472;2022-10-16T03:32:40;46.40;;;40.47;;
1693;SDS011;844;47.058;15.472;2022-10-16T03:35:10;50.17;;;43.23;;
1693;SDS011;844;47.058;15.472;2022-10-16T03:37:39;44.87;;;39.87;;
1693;SDS011;844;47.058;15.472;2022-10-16T03:40:09;44.80;;;40.33;;
1693;SDS011;844;47.058;15.472;2022-10-16T03:42:38;43.90;;;39.43;;
1693;SDS011;844;47.058;15.472;2022-10-16T03:45:08;42.53;;;38.00;;
1693;SDS011;844;47.058;15.472;2022-10-16T03:47:39;43.17;;;38.80;;
1693;SDS011;844;47.058;15.472;2022-10-16T03:50:09;43.93;;;38.50;;
1693;SDS011;844;47.058;15.472;2022-10-16T03:52:38;46.63;;;39.00;;
1693;SDS011;844;47.058;15.472;2022-10-16T03:55:08;44.60;;;39.90;;
1693;SDS011;844;47.058;15.472;2022-10-16T03:57:37;40.47;;;36.40;;
1693;SDS011;844;47.058;15.472;2022-10-16T04:00:07;42.53;;;37.77;;
1693;SDS011;844;47.058;15.472;2022-10-16T04:02:39;40.43;;;36.07;;
1693;SDS011;844;47.058;15.472;2022-10-16T04:05:09;36.73;;;33.00;;
1693;SDS011;844;47.058;15.472;2022-10-16T04:07:39;38.50;;;34.50;;
1693;SDS011;844;47.058;15.472;2022-10-16T04:10:08;42.00;;;34.10;;
1693;SDS011;844;47.058;15.472;2022-10-16T04:12:38;38.73;;;34.93;;
1693;SDS011;844;47.058;15.472;2022-10-16T04:15:08;37.27;;;33.47;;
1693;SDS011;844;47.058;15.472;2022-10-16T04:17:40;38.93;;;35.03;;
1693;SDS011;844;47.058;15.472;2022-10-16T04:20:09;38.27;;;34.47;;
1693;SDS011;844;47.058;15.472;2022-10-16T04:22:39;37.87;;;34.00;;
1693;SDS011;844;47.058;15.472;2022-10-16T04:25:08;40.10;;;36.10;;
1693;SDS011;844;47.058;15.472;2022-10-16T04:27:38;37.90;;;33.80;;
1693;SDS011;844;47.058;15.472;2022-10-16T04:30:12;38.83;;;34.77;;
1693;SDS011;844;47.058;15.472;2022-10-16T04:32:43;37.43;;;33.70;;
1693;SDS011;844;47.058;15.472;2022-10-16T04:35:15;36.00;;;32.60;;
1693;SDS011;844;47.058;15.472;2022-10-16T04:37:45;36.50;;;32.93;;
1693;SDS011;844;47.058;15.472;2022-10-16T04:40:15;38.67;;;34.90;;
1693;SDS011;844;47.058;15.472;2022-10-16T04:42:44;36.80;;;33.53;;
1693;SDS011;844;47.058;15.472;2022-10-16T04:45:13;37.47;;;33.67;;
1693;SDS011;844;47.058;15.472;2022-10-16T04:47:44;38.50;;;34.50;;
1693;SDS011;844;47.058;15.472;2022-10-16T04:50:13;39.17;;;35.23;;
1693;SDS011;844;47.058;15.472;2022-10-16T04:52:43;38.90;;;35.10;;
1693;SDS011;844;47.058;15.472;2022-10-16T04:55:12;37.90;;;34.00;;
1693;SDS011;844;47.058;15.472;2022-10-16T04:57:42;38.80;;;35.10;;
1693;SDS011;844;47.058;15.472;2022-10-16T05:00:12;41.27;;;35.57;;
1693;SDS011;844;47.058;15.472;2022-10-16T05:02:43;38.33;;;34.40;;
1693;SDS011;844;47.058;15.472;2022-10-16T05:05:13;37.70;;;34.00;;
1693;SDS011;844;47.058;15.472;2022-10-16T05:07:42;39.00;;;35.27;;
1693;SDS011;844;47.058;15.472;2022-10-16T05:10:12;36.57;;;32.97;;
1693;SDS011;844;47.058;15.472;2022-10-16T05:12:41;36.77;;;33.23;;
1693;SDS011;844;47.058;15.472;2022-10-16T05:15:11;35.87;;;32.47;;
1693;SDS011;844;47.058;15.472;2022-10-16T05:17:40;35.43;;;32.10;;
1693;SDS011;844;47.058;15.472;2022-10-16T05:20:12;33.87;;;30.80;;
1693;SDS011;844;47.058;15.472;2022-10-16T05:22:41;35.80;;;32.30;;
1693;SDS011;844;47.058;15.472;2022-10-16T05:25:10;35.47;;;32.03;;
1693;SDS011;844;47.058;15.472;2022-10-16T05:27:39;33.33;;;30.07;;
1693;SDS011;844;47.058;15.472;2022-10-16T05:30:09;35.00;;;31.57;;
1693;SDS011;844;47.058;15.472;2022-10-16T05:32:38;33.17;;;30.13;;
1693;SDS011;844;47.058;15.472;2022-10-16T05:35:08;33.57;;;30.20;;
1693;SDS011;844;47.058;15.472;2022-10-16T05:37:40;33.67;;;30.03;;
1693;SDS011;844;47.058;15.472;2022-10-16T05:40:10;36.10;;;32.50;;
1693;SDS011;844;47.058;15.472;2022-10-16T05:43:03;37.50;;;33.60;;
1693;SDS011;844;47.058;15.472;2022-10-16T05:45:56;33.77;;;30.57;;
1693;SDS011;844;47.058;15.472;2022-10-16T05:48:52;33.57;;;30.40;;
1693;SDS011;844;47.058;15.472;2022-10-16T05:51:38;36.10;;;32.63;;
1693;SDS011;844;47.058;15.472;2022-10-16T05:54:38;35.33;;;31.93;;
1693;SDS011;844;47.058;15.472;2022-10-16T05:57:35;34.90;;;31.53;;
1693;SDS011;844;47.058;15.472;2022-10-16T06:00:26;39.77;;;35.77;;
1693;SDS011;844;47.058;15.472;2022-10-16T06:03:10;34.30;;;30.90;;
1693;SDS011;844;47.058;15.472;2022-10-16T06:05:40;36.90;;;33.60;;
1693;SDS011;844;47.058;15.472;2022-10-16T06:08:09;33.73;;;30.50;;
1693;SDS011;844;47.058;15.472;2022-10-16T06:10:41;33.13;;;29.90;;
1693;SDS011;844;47.058;15.472;2022-10-16T06:13:10;32.50;;;29.43;;
1693;SDS011;844;47.058;15.472;2022-10-16T06:15:42;38.30;;;34.53;;
1693;SDS011;844;47.058;15.472;2022-10-16T06:18:12;35.60;;;32.20;;
1693;SDS011;844;47.058;15.472;2022-10-16T06:20:41;34.33;;;31.03;;
1693;SDS011;844;47.058;15.472;2022-10-16T06:23:13;32.60;;;29.40;;
1693;SDS011;844;47.058;15.472;2022-10-16T06:25:45;33.77;;;30.43;;
1693;SDS011;844;47.058;15.472;2022-10-16T06:28:14;35.33;;;32.00;;
1693;SDS011;844;47.058;15.472;2022-10-16T06:30:44;34.67;;;31.47;;
1693;SDS011;844;47.058;15.472;2022-10-16T06:33:13;33.73;;;30.43;;
1693;SDS011;844;47.058;15.472;2022-10-16T06:35:43;38.43;;;34.63;;
1693;SDS011;844;47.058;15.472;2022-10-16T06:38:12;35.50;;;32.10;;
1693;SDS011;844;47.058;15.472;2022-10-16T06:40:42;36.57;;;32.83;;
1693;SDS011;844;47.058;15.472;2022-10-16T06:43:13;34.83;;;31.37;;
1693;SDS011;844;47.058;15.472;2022-10-16T06:45:43;36.27;;;32.57;;
1693;SDS011;844;47.058;15.472;2022-10-16T06:48:14;34.70;;;31.50;;
1693;SDS011;844;47.058;15.472;2022-10-16T06:50:44;34.07;;;30.97;;
1693;SDS011;844;47.058;15.472;2022-10-16T06:53:23;33.93;;;30.63;;
1693;SDS011;844;47.058;15.472;2022-10-16T06:55:54;34.47;;;31.07;;
1693;SDS011;844;47.058;15.472;2022-10-16T06:58:24;34.97;;;31.63;;
1693;SDS011;844;47.058;15.472;2022-10-16T07:00:56;32.60;;;29.20;;
1693;SDS011;844;47.058;15.472;2022-10-16T07:03:26;33.77;;;30.10;;
1693;SDS011;844;47.058;15.472;2022-10-16T07:05:56;36.97;;;33.27;;
1693;SDS011;844;47.058;15.472;2022-10-16T07:08:25;37.47;;;33.73;;
1693;SDS011;844;47.058;15.472;2022-10-16T07:10:59;36.40;;;32.73;;
1693;SDS011;844;47.058;15.472;2022-10-16T07:13:29;34.73;;;31.17;;
1693;SDS011;844;47.058;15.472;2022-10-16T07:16:03;34.20;;;31.10;;
1693;SDS011;844;47.058;15.472;2022-10-16T07:18:34;33.57;;;30.33;;
1693;SDS011;844;47.058;15.472;2022-10-16T07:21:06;35.30;;;32.10;;
1693;SDS011;844;47.058;15.472;2022-10-16T07:23:37;33.43;;;30.13;;
1693;SDS011;844;47.058;15.472;2022-10-16T07:26:10;33.33;;;30.13;;
1693;SDS011;844;47.058;15.472;2022-10-16T07:28:40;32.63;;;29.30;;
1693;SDS011;844;47.058;15.472;2022-10-16T07:31:12;41.13;;;37.23;;
1693;SDS011;844;47.058;15.472;2022-10-16T07:33:44;36.00;;;32.50;;
1693;SDS011;844;47.058;15.472;2022-10-16T07:36:20;37.83;;;33.87;;
1693;SDS011;844;47.058;15.472;2022-10-16T07:38:50;38.00;;;34.10;;
1693;SDS011;844;47.058;15.472;2022-10-16T07:41:31;37.33;;;33.73;;
1693;SDS011;844;47.058;15.472;2022-10-16T07:44:03;38.43;;;34.63;;
1693;SDS011;844;47.058;15.472;2022-10-16T07:46:34;35.63;;;32.13;;
1693;SDS011;844;47.058;15.472;2022-10-16T07:49:04;37.70;;;34.00;;
1693;SDS011;844;47.058;15.472;2022-10-16T07:51:34;35.00;;;31.40;;
1693;SDS011;844;47.058;15.472;2022-10-16T07:54:07;36.37;;;32.57;;
1693;SDS011;844;47.058;15.472;2022-10-16T07:56:38;34.70;;;31.33;;
1693;SDS011;844;47.058;15.472;2022-10-16T07:59:10;37.97;;;34.40;;
1693;SDS011;844;47.058;15.472;2022-10-16T08:01:39;36.90;;;33.03;;
1693;SDS011;844;47.058;15.472;2022-10-16T08:04:10;36.93;;;33.10;;
1693;SDS011;844;47.058;15.472;2022-10-16T08:06:40;36.97;;;33.00;;
1693;SDS011;844;47.058;15.472;2022-10-16T08:09:09;34.30;;;31.03;;
1693;SDS011;844;47.058;15.472;2022-10-16T08:11:40;34.30;;;31.00;;
1693;SDS011;844;47.058;15.472;2022-10-16T08:14:09;35.63;;;32.00;;
1693;SDS011;844;47.058;15.472;2022-10-16T08:16:38;32.63;;;29.53;;
1693;SDS011;844;47.058;15.472;2022-10-16T08:19:08;38.93;;;31.80;;
1693;SDS011;844;47.058;15.472;2022-10-16T08:21:42;35.23;;;31.83;;
1693;SDS011;844;47.058;15.472;2022-10-16T08:24:15;35.13;;;31.80;;
1693;SDS011;844;47.058;15.472;2022-10-16T08:26:46;37.73;;;33.93;;
1693;SDS011;844;47.058;15.472;2022-10-16T08:29:15;36.23;;;32.97;;
1693;SDS011;844;47.058;15.472;2022-10-16T08:31:44;36.93;;;33.27;;
1693;SDS011;844;47.058;15.472;2022-10-16T08:34:14;35.17;;;32.00;;
1693;SDS011;844;47.058;15.472;2022-10-16T08:36:43;37.37;;;33.67;;
1693;SDS011;844;47.058;15.472;2022-10-16T08:39:13;34.07;;;30.80;;
1693;SDS011;844;47.058;15.472;2022-10-16T08:41:57;35.77;;;32.40;;
1693;SDS011;844;47.058;15.472;2022-10-16T08:44:35;34.67;;;31.27;;
1693;SDS011;844;47.058;15.472;2022-10-16T08:47:16;33.90;;;30.57;;
1693;SDS011;844;47.058;15.472;2022-10-16T08:49:51;34.33;;;30.90;;
1693;SDS011;844;47.058;15.472;2022-10-16T08:52:25;36.43;;;32.57;;
1693;SDS011;844;47.058;15.472;2022-10-16T08:54:59;38.33;;;34.80;;
1693;SDS011;844;47.058;15.472;2022-10-16T08:57:30;33.03;;;29.83;;
1693;SDS011;844;47.058;15.472;2022-10-16T09:00:00;36.43;;;32.73;;
1693;SDS011;844;47.058;15.472;2022-10-16T09:02:40;37.50;;;34.27;;
1693;SDS011;844;47.058;15.472;2022-10-16T09:05:19;36.13;;;32.43;;
1693;SDS011;844;47.058;15.472;2022-10-16T09:07:55;38.17;;;34.40;;
1693;SDS011;844;47.058;15.472;2022-10-16T09:10:42;38.83;;;34.83;;
1693;SDS011;844;47.058;15.472;2022-10-16T09:13:35;35.40;;;32.03;;
1693;SDS011;844;47.058;15.472;2022-10-16T09:16:12;36.83;;;33.23;;
1693;SDS011;844;47.058;15.472;2022-10-16T09:18:46;34.60;;;31.30;;
1693;SDS011;844;47.058;15.472;2022-10-16T09:21:20;37.70;;;34.20;;
1693;SDS011;844;47.058;15.472;2022-10-16T09:23:51;37.43;;;33.70;;
1693;SDS011;844;47.058;15.472;2022-10-16T09:26:20;36.50;;;32.90;;
1693;SDS011;844;47.058;15.472;2022-10-16T09:28:56;33.50;;;30.20;;
1693;SDS011;844;47.058;15.472;2022-10-16T09:31:26;33.27;;;29.93;;
1693;SDS011;844;47.058;15.472;2022-10-16T09:33:59;34.03;;;30.90;;
1693;SDS011;844;47.058;15.472;2022-10-16T09:36:32;36.40;;;33.03;;
1693;SDS011;844;47.058;15.472;2022-10-16T09:39:09;34.03;;;30.83;;
1693;SDS011;844;47.058;15.472;2022-10-16T09:41:39;34.33;;;30.90;;
1693;SDS011;844;47.058;15.472;2022-10-16T09:44:20;36.90;;;33.17;;
1693;SDS011;844;47.058;15.472;2022-10-16T09:47:00;32.90;;;29.80;;
1693;SDS011;844;47.058;15.472;2022-10-16T09:49:31;31.13;;;28.13;;
1693;SDS011;844;47.058;15.472;2022-10-16T09:52:04;31.07;;;28.07;;
1693;SDS011;844;47.058;15.472;2022-10-16T09:54:48;27.50;;;24.90;;
1693;SDS011;844;47.058;15.472;2022-10-16T09:57:18;30.07;;;27.27;;
1693;SDS011;844;47.058;15.472;2022-10-16T09:59:50;30.40;;;27.40;;
1693;SDS011;844;47.058;15.472;2022-10-16T10:02:23;32.17;;;29.13;;
1693;SDS011;844;47.058;15.472;2022-10-16T10:04:56;28.43;;;25.70;;
1693;SDS011;844;47.058;15.472;2022-10-16T10:07:26;28.07;;;25.30;;
1693;SDS011;844;47.058;15.472;2022-10-16T10:09:56;28.37;;;25.77;;
1693;SDS011;844;47.058;15.472;2022-10-16T10:12:27;24.93;;;22.77;;
1693;SDS011;844;47.058;15.472;2022-10-16T10:15:04;27.10;;;24.70;;
1693;SDS011;844;47.058;15.472;2022-10-16T10:17:45;28.47;;;25.87;;
1693;SDS011;844;47.058;15.472;2022-10-16T10:20:21;26.50;;;24.23;;
1693;SDS011;844;47.058;15.472;2022-10-16T10:22:53;29.63;;;27.00;;
1693;SDS011;844;47.058;15.472;2022-10-16T10:25:26;29.93;;;26.80;;
1693;SDS011;844;47.058;15.472;2022-10-16T10:28:17;29.37;;;26.67;;
1693;SDS011;844;47.058;15.472;2022-10-16T10:30:58;29.53;;;26.87;;
1693;SDS011;844;47.058;15.472;2022-10-16T10:33:35;30.37;;;27.47;;
1693;SDS011;844;47.058;15.472;2022-10-16T10:36:12;28.83;;;26.10;;
1693;SDS011;844;47.058;15.472;2022-10-16T10:38:51;27.87;;;25.37;;
1693;SDS011;844;47.058;15.472;2022-10-16T10:41:30;26.60;;;24.33;;
1693;SDS011;844;47.058;15.472;2022-10-16T10:44:28;26.97;;;24.47;;
1693;SDS011;844;47.058;15.472;2022-10-16T10:47:10;27.90;;;25.40;;
1693;SDS011;844;47.058;15.472;2022-10-16T10:49:49;26.40;;;24.10;;
1693;SDS011;844;47.058;15.472;2022-10-16T10:52:34;25.87;;;23.53;;
1693;SDS011;844;47.058;15.472;2022-10-16T10:55:12;27.70;;;25.20;;
1693;SDS011;844;47.058;15.472;2022-10-16T10:57:57;24.80;;;22.30;;
1693;SDS011;844;47.058;15.472;2022-10-16T11:00:37;27.43;;;24.93;;
1693;SDS011;844;47.058;15.472;2022-10-16T11:03:18;24.10;;;22.00;;
1693;SDS011;844;47.058;15.472;2022-10-16T11:06:10;25.10;;;23.00;;
1693;SDS011;844;47.058;15.472;2022-10-16T11:08:43;24.97;;;22.77;;
1693;SDS011;844;47.058;15.472;2022-10-16T11:11:16;23.03;;;21.13;;
1693;SDS011;844;47.058;15.472;2022-10-16T11:13:51;22.13;;;20.13;;
1693;SDS011;844;47.058;15.472;2022-10-16T11:16:27;24.90;;;22.40;;
1693;SDS011;844;47.058;15.472;2022-10-16T11:19:02;21.47;;;19.33;;
1693;SDS011;844;47.058;15.472;2022-10-16T11:21:35;21.87;;;19.80;;
1693;SDS011;844;47.058;15.472;2022-10-16T11:24:10;21.07;;;19.10;;
1693;SDS011;844;47.058;15.472;2022-10-16T11:26:43;22.40;;;20.53;;
1693;SDS011;844;47.058;15.472;2022-10-16T11:29:15;21.63;;;19.67;;
1693;SDS011;844;47.058;15.472;2022-10-16T11:31:48;21.80;;;19.90;;
1693;SDS011;844;47.058;15.472;2022-10-16T11:34:24;19.87;;;18.27;;
1693;SDS011;844;47.058;15.472;2022-10-16T11:37:02;21.47;;;19.30;;
1693;SDS011;844;47.058;15.472;2022-10-16T11:39:36;20.30;;;18.60;;
1693;SDS011;844;47.058;15.472;2022-10-16T11:42:09;20.87;;;18.97;;
1693;SDS011;844;47.058;15.472;2022-10-16T11:44:45;21.60;;;19.40;;
1693;SDS011;844;47.058;15.472;2022-10-16T11:47:24;19.50;;;17.87;;
1693;SDS011;844;47.058;15.472;2022-10-16T11:50:22;19.27;;;17.57;;
1693;SDS011;844;47.058;15.472;2022-10-16T11:52:55;21.20;;;19.50;;
1693;SDS011;844;47.058;15.472;2022-10-16T11:55:29;19.70;;;18.20;;
1693;SDS011;844;47.058;15.472;2022-10-16T11:58:02;21.20;;;19.40;;
1693;SDS011;844;47.058;15.472;2022-10-16T12:00:36;19.57;;;18.07;;
1693;SDS011;844;47.058;15.472;2022-10-16T12:03:11;21.30;;;19.60;;
1693;SDS011;844;47.058;15.472;2022-10-16T12:08:35;20.10;;;18.37;;
1693;SDS011;844;47.058;15.472;2022-10-16T12:11:08;20.40;;;18.70;;
1693;SDS011;844;47.058;15.472;2022-10-16T12:13:49;20.70;;;18.60;;
1693;SDS011;844;47.058;15.472;2022-10-16T12:16:20;19.80;;;18.03;;
1693;SDS011;844;47.058;15.472;2022-10-16T12:19:02;20.53;;;18.70;;
1693;SDS011;844;47.058;15.472;2022-10-16T12:21:40;20.00;;;18.40;;
1693;SDS011;844;47.058;15.472;2022-10-16T12:24:20;21.10;;;19.40;;
1693;SDS011;844;47.058;15.472;2022-10-16T12:26:56;20.83;;;19.20;;
1693;SDS011;844;47.058;15.472;2022-10-16T12:29:28;20.20;;;18.60;;
1693;SDS011;844;47.058;15.472;2022-10-16T12:32:04;23.03;;;20.97;;
1693;SDS011;844;47.058;15.472;2022-10-16T12:35:17;21.13;;;19.47;;
1693;SDS011;844;47.058;15.472;2022-10-16T12:37:51;19.90;;;18.30;;
1693;SDS011;844;47.058;15.472;2022-10-16T12:40:25;20.13;;;18.63;;
1693;SDS011;844;47.058;15.472;2022-10-16T12:42:56;21.33;;;19.73;;
1693;SDS011;844;47.058;15.472;2022-10-16T12:45:27;22.33;;;20.53;;
1693;SDS011;844;47.058;15.472;2022-10-16T12:47:59;23.57;;;21.47;;
1693;SDS011;844;47.058;15.472;2022-10-16T12:50:32;20.87;;;19.17;;
1693;SDS011;844;47.058;15.472;2022-10-16T12:53:15;22.00;;;20.30;;
1693;SDS011;844;47.058;15.472;2022-10-16T12:55:50;20.00;;;18.40;;
1693;SDS011;844;47.058;15.472;2022-10-16T12:58:28;23.10;;;21.10;;
1693;SDS011;844;47.058;15.472;2022-10-16T13:01:07;20.63;;;18.90;;
1693;SDS011;844;47.058;15.472;2022-10-16T13:03:48;19.30;;;17.80;;
1693;SDS011;844;47.058;15.472;2022-10-16T13:06:42;20.47;;;18.77;;
1693;SDS011;844;47.058;15.472;2022-10-16T13:09:25;18.30;;;16.70;;
1693;SDS011;844;47.058;15.472;2022-10-16T13:12:14;17.83;;;16.43;;
1693;SDS011;844;47.058;15.472;2022-10-16T13:15:04;18.10;;;16.70;;
1693;SDS011;844;47.058;15.472;2022-10-16T13:17:41;18.47;;;16.93;;
1693;SDS011;844;47.058;15.472;2022-10-16T13:20:18;18.93;;;17.33;;
1693;SDS011;844;47.058;15.472;2022-10-16T13:22:51;18.33;;;16.90;;
1693;SDS011;844;47.058;15.472;2022-10-16T13:25:32;17.37;;;15.87;;
1693;SDS011;844;47.058;15.472;2022-10-16T13:28:07;16.30;;;15.00;;
1693;SDS011;844;47.058;15.472;2022-10-16T13:30:39;16.70;;;15.40;;
1693;SDS011;844;47.058;15.472;2022-10-16T13:33:13;19.43;;;17.63;;
1693;SDS011;844;47.058;15.472;2022-10-16T13:35:48;19.23;;;17.63;;
1693;SDS011;844;47.058;15.472;2022-10-16T13:38:18;19.47;;;17.73;;
1693;SDS011;844;47.058;15.472;2022-10-16T13:40:50;18.03;;;16.27;;
1693;SDS011;844;47.058;15.472;2022-10-16T13:43:23;18.87;;;17.37;;
1693;SDS011;844;47.058;15.472;2022-10-16T13:45:55;18.87;;;17.37;;
1693;SDS011;844;47.058;15.472;2022-10-16T13:48:26;20.50;;;18.80;;
1693;SDS011;844;47.058;15.472;2022-10-16T13:50:59;19.97;;;18.37;;
1693;SDS011;844;47.058;15.472;2022-10-16T13:53:30;19.70;;;18.00;;
1693;SDS011;844;47.058;15.472;2022-10-16T13:56:03;19.97;;;18.30;;
1693;SDS011;844;47.058;15.472;2022-10-16T13:58:33;20.07;;;18.23;;
1693;SDS011;844;47.058;15.472;2022-10-16T14:01:03;19.73;;;17.93;;
1693;SDS011;844;47.058;15.472;2022-10-16T14:03:34;20.03;;;18.47;;
1693;SDS011;844;47.058;15.472;2022-10-16T14:06:11;19.23;;;17.53;;
1693;SDS011;844;47.058;15.472;2022-10-16T14:08:42;22.23;;;20.10;;
1693;SDS011;844;47.058;15.472;2022-10-16T14:11:19;20.50;;;18.63;;
1693;SDS011;844;47.058;15.472;2022-10-16T14:13:50;21.33;;;19.50;;
1693;SDS011;844;47.058;15.472;2022-10-16T14:16:21;19.03;;;17.43;;
1693;SDS011;844;47.058;15.472;2022-10-16T14:18:55;20.63;;;18.83;;
1693;SDS011;844;47.058;15.472;2022-10-16T14:21:25;22.17;;;20.23;;
1693;SDS011;844;47.058;15.472;2022-10-16T14:23:55;21.50;;;19.70;;
1693;SDS011;844;47.058;15.472;2022-10-16T14:26:27;20.77;;;19.27;;
1693;SDS011;844;47.058;15.472;2022-10-16T14:29:08;23.07;;;20.70;;
1693;SDS011;844;47.058;15.472;2022-10-16T14:31:39;22.07;;;20.17;;
1693;SDS011;844;47.058;15.472;2022-10-16T14:34:23;25.47;;;23.17;;
1693;SDS011;844;47.058;15.472;2022-10-16T14:36:54;22.80;;;20.80;;
1693;SDS011;844;47.058;15.472;2022-10-16T14:39:24;22.67;;;20.63;;
1693;SDS011;844;47.058;15.472;2022-10-16T14:41:57;21.70;;;19.80;;
1693;SDS011;844;47.058;15.472;2022-10-16T14:44:29;21.30;;;19.57;;
1693;SDS011;844;47.058;15.472;2022-10-16T14:47:07;23.90;;;21.83;;
1693;SDS011;844;47.058;15.472;2022-10-16T14:49:38;22.80;;;20.90;;
1693;SDS011;844;47.058;15.472;2022-10-16T14:52:10;23.10;;;21.20;;
1693;SDS011;844;47.058;15.472;2022-10-16T14:54:41;25.40;;;22.90;;
1693;SDS011;844;47.058;15.472;2022-10-16T14:57:17;22.60;;;20.70;;
1693;SDS011;844;47.058;15.472;2022-10-16T14:59:49;23.70;;;21.60;;
1693;SDS011;844;47.058;15.472;2022-10-16T15:02:20;25.33;;;23.13;;
1693;SDS011;844;47.058;15.472;2022-10-16T15:04:53;24.10;;;22.20;;
1693;SDS011;844;47.058;15.472;2022-10-16T15:07:25;22.33;;;20.43;;
1693;SDS011;844;47.058;15.472;2022-10-16T15:09:55;26.80;;;24.40;;
1693;SDS011;844;47.058;15.472;2022-10-16T15:12:26;29.77;;;27.20;;
1693;SDS011;844;47.058;15.472;2022-10-16T15:14:56;27.10;;;24.70;;
1693;SDS011;844;47.058;15.472;2022-10-16T15:17:25;28.30;;;25.80;;
1693;SDS011;844;47.058;15.472;2022-10-16T15:19:56;26.93;;;24.70;;
1693;SDS011;844;47.058;15.472;2022-10-16T15:22:26;28.57;;;25.53;;
1693;SDS011;844;47.058;15.472;2022-10-16T15:24:55;30.77;;;28.00;;
1693;SDS011;844;47.058;15.472;2022-10-16T15:27:24;30.23;;;27.53;;
1693;SDS011;844;47.058;15.472;2022-10-16T15:29:56;31.67;;;28.80;;